Time;durP1;ratioP1;P1;durP2;ratioP2;P2;SDS_P1;SDS_P2;PMS_P1;PMS_P2;Temp;Humidity;BMP_temperature;BMP_pressure;BME280_temperature;BME280_humidity;BME280_pressure;Samples;Min_cycle;Max_cycle;Signal;HPM_P1;HPM_P2
2023/08/22 00:01:05;;;;;;;4.45;1.92;;;;;;;24.69;54.38;102028.91;4968300;28;20039;-69
2023/08/22 00:03:30;;;;;;;3.92;1.80;;;;;;;24.70;54.50;102024.41;4983934;28;20035;-67
2023/08/22 00:05:56;;;;;;;4.63;1.77;;;;;;;24.70;54.43;102019.09;4968615;28;20391;-69
2023/08/22 00:08:21;;;;;;;3.58;1.60;;;;;;;24.68;54.42;102021.88;4969042;28;20483;-69
2023/08/22 00:10:46;;;;;;;5.30;1.80;;;;;;;24.69;53.91;102031.56;4967445;28;20026;-68
2023/08/22 00:13:12;;;;;;;4.45;1.90;;;;;;;24.69;53.99;102030.72;4968565;28;20030;-68
2023/08/22 00:15:37;;;;;;;4.05;1.80;;;;;;;24.68;54.04;102027.22;4969280;28;20061;-67
2023/08/22 00:18:03;;;;;;;4.70;2.10;;;;;;;24.69;54.49;102026.25;4968239;28;20042;-67
2023/08/22 00:20:28;;;;;;;3.25;1.50;;;;;;;24.67;54.20;102020.19;4968150;28;20121;-67
2023/08/22 00:22:53;;;;;;;4.93;1.98;;;;;;;24.66;54.14;102023.84;4968627;28;20039;-67
2023/08/22 00:25:19;;;;;;;3.92;1.90;;;;;;;24.66;54.47;102018.53;4968612;28;20540;-67
2023/08/22 00:27:44;;;;;;;5.25;2.15;;;;;;;24.67;54.17;102022.03;4967567;28;20519;-69
2023/08/22 00:30:10;;;;;;;4.60;2.00;;;;;;;24.67;54.20;102024.69;4968509;28;20034;-69
2023/08/22 00:32:35;;;;;;;4.10;1.90;;;;;;;24.64;54.54;102025.78;4968499;28;20737;-68
2023/08/22 00:35:01;;;;;;;3.03;1.60;;;;;;;24.64;54.32;102023.13;4967993;28;20057;-68
2023/08/22 00:37:27;;;;;;;3.38;1.48;;;;;;;24.63;54.27;102014.31;4966791;28;20049;-66
2023/08/22 00:39:53;;;;;;;4.40;1.80;;;;;;;24.63;54.52;102016.97;4968805;28;20030;-66
2023/08/22 00:42:18;;;;;;;4.00;1.73;;;;;;;24.65;54.03;102011.50;4968086;28;20502;-67
2023/08/22 00:44:44;;;;;;;5.15;1.92;;;;;;;24.63;54.04;102008.97;4967790;28;20026;-67
2023/08/22 00:47:09;;;;;;;4.43;1.80;;;;;;;24.62;54.14;102012.66;4968867;28;20027;-68
2023/08/22 00:49:35;;;;;;;4.15;2.05;;;;;;;24.60;54.34;102005.75;4968368;28;20176;-67
2023/08/22 00:52:02;;;;;;;4.13;1.75;;;;;;;24.61;54.46;102008.28;4968099;28;20034;-69
2023/08/22 00:54:29;;;;;;;3.42;1.58;;;;;;;24.62;54.08;102003.78;4967183;28;20816;-66
2023/08/22 00:56:56;;;;;;;4.82;1.80;;;;;;;24.62;54.35;101999.31;4966471;28;20031;-67
2023/08/22 00:59:22;;;;;;;3.67;1.73;;;;;;;24.61;54.29;102010.94;4966561;28;20042;-67
2023/08/22 01:01:47;;;;;;;4.35;1.70;;;;;;;24.61;54.48;102002.94;4965427;28;20038;-67
2023/08/22 01:04:13;;;;;;;3.53;1.80;;;;;;;24.59;54.08;101994.25;4966366;28;20031;-68
2023/08/22 01:07:03;;;;;;;4.07;1.95;;;;;;;24.59;54.17;101990.75;4966828;28;20049;-68
2023/08/22 01:09:40;;;;;;;3.65;1.70;;;;;;;24.59;54.17;101990.75;4966676;28;20484;-66
2023/08/22 01:12:22;;;;;;;3.88;1.88;;;;;;;24.59;53.97;101993.41;4967039;28;20046;-67
2023/08/22 01:14:55;;;;;;;3.83;1.75;;;;;;;24.57;54.13;101993.53;4968411;28;20496;-67
2023/08/22 01:17:21;;;;;;;4.60;1.88;;;;;;;24.58;54.06;101999.72;4967661;28;20035;-68
2023/08/22 01:19:47;;;;;;;4.75;1.80;;;;;;;24.59;54.25;101998.72;4967639;28;20102;-66
2023/08/22 01:22:13;;;;;;;3.78;1.95;;;;;;;24.58;54.51;102008.56;4967717;28;20035;-67
2023/08/22 01:24:38;;;;;;;4.77;1.80;;;;;;;24.57;54.12;102006.03;4967503;28;20030;-69
2023/08/22 01:27:06;;;;;;;3.92;1.70;;;;;;;24.57;53.99;102000.69;4967711;28;20285;-66
2023/08/22 01:29:48;;;;;;;4.10;1.85;;;;;;;24.56;54.30;101994.53;4966816;28;20034;-68
2023/08/22 01:32:24;;;;;;;3.20;1.90;;;;;;;24.57;54.18;101990.03;4968301;28;20034;-68
2023/08/22 01:34:53;;;;;;;5.15;2.30;;;;;;;24.57;54.40;101984.72;4968438;28;20498;-67
2023/08/22 01:37:22;;;;;;;4.30;2.00;;;;;;;24.56;54.30;101991.88;4966923;28;20126;-67
2023/08/22 01:39:47;;;;;;;4.45;2.08;;;;;;;24.56;54.32;101991.88;4966661;28;20105;-68
2023/08/22 01:42:13;;;;;;;4.40;1.95;;;;;;;24.54;54.29;101983.13;4966364;28;20033;-67
2023/08/22 01:44:38;;;;;;;4.07;2.00;;;;;;;24.55;54.28;101984.00;4966605;28;20122;-67
2023/08/22 01:47:03;;;;;;;4.47;2.00;;;;;;;24.54;54.34;101984.97;4965852;28;20035;-69
2023/08/22 01:49:29;;;;;;;3.85;2.10;;;;;;;24.54;54.32;101987.63;4966240;28;20058;-68
2023/08/22 01:51:55;;;;;;;4.35;2.10;;;;;;;24.54;54.10;101988.47;4966321;28;20042;-68
2023/08/22 01:54:21;;;;;;;4.53;2.05;;;;;;;24.53;53.99;101981.47;4966090;28;20534;-67
2023/08/22 01:56:46;;;;;;;5.13;2.05;;;;;;;24.53;54.16;101978.81;4966747;28;20113;-68
2023/08/22 01:59:12;;;;;;;6.57;2.13;;;;;;;24.54;54.34;101982.28;4967615;28;20030;-67
2023/08/22 02:01:37;;;;;;;4.63;2.33;;;;;;;24.51;53.95;101978.06;4967572;28;20372;-66
2023/08/22 02:04:03;;;;;;;6.13;2.40;;;;;;;24.52;54.23;101978.94;4966495;28;20031;-67
2023/08/22 02:06:30;;;;;;;5.45;2.20;;;;;;;24.53;54.30;101984.13;4966347;28;20038;-67
2023/08/22 02:08:55;;;;;;;5.15;2.05;;;;;;;24.52;53.72;101979.78;4967022;28;20031;-68
2023/08/22 02:11:21;;;;;;;4.75;1.92;;;;;;;24.52;54.31;101976.28;4967564;28;20038;-66
2023/08/22 02:13:46;;;;;;;4.60;2.10;;;;;;;24.52;54.01;101974.44;4969544;28;20420;-68
2023/08/22 02:16:12;;;;;;;8.70;2.22;;;;;;;24.51;54.15;101970.09;4971363;28;20035;-68
2023/08/22 02:18:37;;;;;;;3.55;1.83;;;;;;;24.51;54.28;101970.09;4970520;28;20035;-66
2023/08/22 02:21:02;;;;;;;4.82;2.13;;;;;;;24.51;54.02;101969.25;4971323;28;20411;-67
2023/08/22 02:23:28;;;;;;;3.60;1.80;;;;;;;24.50;54.13;101959.56;4968312;28;20133;-66
2023/08/22 02:25:53;;;;;;;4.25;2.03;;;;;;;24.51;53.92;101966.59;4969968;28;20034;-68
2023/08/22 02:28:18;;;;;;;4.43;2.13;;;;;;;24.49;54.27;101963.22;4969690;28;20420;-68
2023/08/22 02:30:44;;;;;;;4.78;2.10;;;;;;;24.49;54.12;101960.56;4969116;28;20045;-67
2023/08/22 02:33:09;;;;;;;4.25;1.95;;;;;;;24.49;53.83;101958.72;4968683;28;20050;-67
2023/08/22 02:35:35;;;;;;;4.68;2.00;;;;;;;24.47;54.11;101952.72;4969849;28;20046;-67
2023/08/22 02:38:00;;;;;;;5.07;2.10;;;;;;;24.47;53.78;101955.38;4968923;28;20035;-68
2023/08/22 02:40:25;;;;;;;4.47;2.00;;;;;;;24.47;54.05;101958.03;4969408;28;20635;-67
2023/08/22 02:42:51;;;;;;;5.20;2.00;;;;;;;24.48;54.30;101956.22;4970036;28;20165;-67
2023/08/22 02:45:16;;;;;;;5.65;2.03;;;;;;;24.47;53.95;101957.19;4970156;28;20031;-68
2023/08/22 02:47:42;;;;;;;4.68;2.35;;;;;;;24.48;53.66;101961.53;4970324;28;20035;-68
2023/08/22 02:50:07;;;;;;;5.10;2.58;;;;;;;24.46;53.98;101961.66;4969264;28;20476;-67
2023/08/22 02:52:33;;;;;;;4.35;2.47;;;;;;;24.45;53.96;101957.34;4970377;28;20070;-67
2023/08/22 02:54:58;;;;;;;4.40;1.90;;;;;;;24.47;53.90;101963.38;4969788;28;20043;-67
2023/08/22 02:57:24;;;;;;;6.07;2.33;;;;;;;24.46;54.20;101964.34;4970169;28;20042;-67
2023/08/22 02:59:49;;;;;;;4.40;2.00;;;;;;;24.47;53.79;101965.16;4969608;28;20046;-67
2023/08/22 03:02:14;;;;;;;4.82;2.25;;;;;;;24.46;54.22;101961.66;4970301;28;20506;-67
2023/08/22 03:04:40;;;;;;;5.30;2.47;;;;;;;24.46;54.12;101959.00;4969543;28;20031;-67
2023/08/22 03:07:05;;;;;;;5.20;2.30;;;;;;;24.45;54.22;101957.34;4970629;28;20536;-66
2023/08/22 03:09:31;;;;;;;5.55;2.20;;;;;;;24.44;54.12;101956.47;4969480;28;20483;-66
2023/08/22 03:11:57;;;;;;;5.72;2.20;;;;;;;24.44;54.27;101958.31;4970050;28;20039;-67
2023/08/22 03:14:22;;;;;;;4.53;2.28;;;;;;;24.43;54.00;101957.47;4969796;28;20399;-67
2023/08/22 03:16:48;;;;;;;4.97;2.25;;;;;;;24.43;54.23;101953.97;4969694;28;20053;-66
2023/08/22 03:19:13;;;;;;;4.27;1.80;;;;;;;24.42;53.90;101958.47;4969666;28;20042;-67
2023/08/22 03:21:39;;;;;;;4.45;1.88;;;;;;;24.43;53.87;101964.63;4969694;28;20863;-68
2023/08/22 03:24:04;;;;;;;4.40;2.25;;;;;;;24.41;53.78;101954.09;4969217;28;20030;-69
2023/08/22 03:26:30;;;;;;;4.18;2.20;;;;;;;24.43;53.94;101960.16;4969255;28;20114;-67
2023/08/22 03:28:55;;;;;;;6.32;2.28;;;;;;;24.42;54.20;101952.28;4969028;28;20476;-66
2023/08/22 03:31:22;;;;;;;4.30;2.10;;;;;;;24.42;54.06;101950.47;4969022;28;20585;-67
2023/08/22 03:33:48;;;;;;;3.70;2.00;;;;;;;24.43;53.81;101959.28;4969233;28;20030;-67
2023/08/22 03:36:13;;;;;;;5.07;2.20;;;;;;;24.40;54.18;101957.75;4968629;28;20030;-66
2023/08/22 03:38:39;;;;;;;4.88;2.50;;;;;;;24.41;54.12;101958.59;4969453;28;20027;-68
2023/08/22 03:41:04;;;;;;;4.72;2.33;;;;;;;24.41;54.07;101955.94;4969629;28;20042;-67
2023/08/22 03:43:30;;;;;;;3.95;2.08;;;;;;;24.41;54.02;101953.25;4968902;28;20035;-67
2023/08/22 03:45:56;;;;;;;4.93;2.22;;;;;;;24.41;53.76;101962.09;4969002;28;20046;-68
2023/08/22 03:48:21;;;;;;;4.97;2.10;;;;;;;24.40;53.98;101954.22;4969254;28;20050;-67
2023/08/22 03:50:46;;;;;;;4.50;2.30;;;;;;;24.40;54.12;101957.75;4969236;28;20069;-68
2023/08/22 03:53:12;;;;;;;6.03;2.53;;;;;;;24.40;53.85;101955.09;4969077;28;20463;-67
2023/08/22 03:55:39;;;;;;;3.65;1.92;;;;;;;24.39;53.71;101957.91;4968828;28;20273;-67
2023/08/22 03:58:04;;;;;;;4.45;2.33;;;;;;;24.38;53.57;101954.38;4969037;28;20485;-67
2023/08/22 04:00:30;;;;;;;4.10;2.53;;;;;;;24.38;53.75;101954.38;4967807;28;20038;-66
2023/08/22 04:02:56;;;;;;;4.18;2.15;;;;;;;24.38;53.83;101949.03;4968352;28;20027;-66
2023/08/22 04:05:23;;;;;;;3.85;2.20;;;;;;;24.37;53.72;101946.53;4968455;28;20038;-68
2023/08/22 04:07:49;;;;;;;4.15;2.35;;;;;;;24.38;53.91;101950.88;4969172;28;20510;-66
2023/08/22 04:10:15;;;;;;;4.28;2.25;;;;;;;24.38;54.07;101950.88;4968483;28;20498;-67
2023/08/22 04:12:41;;;;;;;5.38;2.30;;;;;;;24.38;53.85;101953.53;4967811;28;20035;-66
2023/08/22 04:15:07;;;;;;;5.18;2.25;;;;;;;24.37;53.58;101949.19;4968496;28;20070;-66
2023/08/22 04:17:32;;;;;;;6.50;2.42;;;;;;;24.36;53.95;101948.34;4968366;28;20027;-66
2023/08/22 04:19:58;;;;;;;4.55;2.40;;;;;;;24.36;53.27;101948.34;4966873;28;20033;-67
2023/08/22 04:22:23;;;;;;;4.63;2.75;;;;;;;24.35;53.46;101951.97;4968614;28;20038;-67
2023/08/22 04:24:49;;;;;;;4.27;2.20;;;;;;;24.37;53.71;101954.50;4968230;28;20129;-67
2023/08/22 04:27:14;;;;;;;4.97;2.22;;;;;;;24.36;53.46;101944.84;4968188;28;20838;-68
2023/08/22 04:29:39;;;;;;;4.05;2.10;;;;;;;24.37;53.40;101946.53;4967592;28;20447;-67
2023/08/22 04:32:05;;;;;;;4.80;2.38;;;;;;;24.36;53.54;101939.53;4968034;28;20873;-67
2023/08/22 04:34:31;;;;;;;5.88;2.60;;;;;;;24.35;53.43;101944.00;4968704;28;20034;-67
2023/08/22 04:36:56;;;;;;;4.32;2.13;;;;;;;24.35;53.25;101941.34;4966961;28;20049;-68
2023/08/22 04:39:21;;;;;;;4.88;2.50;;;;;;;24.33;53.87;101943.31;4969309;28;20035;-66
2023/08/22 04:41:47;;;;;;;3.83;2.20;;;;;;;24.34;53.80;101936.13;4967567;28;20631;-68
2023/08/22 04:44:12;;;;;;;5.15;2.58;;;;;;;24.33;53.50;101939.81;4968034;28;20261;-68
2023/08/22 04:46:37;;;;;;;4.13;2.30;;;;;;;24.32;53.59;101941.59;4968187;28;20042;-67
2023/08/22 04:49:03;;;;;;;4.65;2.40;;;;;;;24.33;53.62;101940.63;4967924;28;20084;-67
2023/08/22 04:51:28;;;;;;;5.75;2.40;;;;;;;24.33;53.50;101947.78;4969191;28;20042;-68
2023/08/22 04:53:54;;;;;;;4.82;2.20;;;;;;;24.32;53.71;101944.28;4968222;28;20034;-67
2023/08/22 04:56:19;;;;;;;4.57;2.65;;;;;;;24.34;53.35;101946.78;4967648;28;20070;-67
2023/08/22 04:58:45;;;;;;;4.45;2.53;;;;;;;24.31;53.28;101947.06;4968294;28;20070;-67
2023/08/22 05:01:11;;;;;;;4.32;2.30;;;;;;;24.31;53.60;101944.41;4969051;28;20034;-68
2023/08/22 05:03:37;;;;;;;5.60;3.00;;;;;;;24.32;53.62;101946.09;4967276;28;20030;-68
2023/08/22 05:06:02;;;;;;;5.22;2.47;;;;;;;24.32;53.37;101946.09;4967534;28;20280;-68
2023/08/22 05:08:27;;;;;;;5.15;2.70;;;;;;;24.32;53.52;101957.59;4967767;28;20039;-67
2023/08/22 05:10:52;;;;;;;5.23;2.47;;;;;;;24.32;53.42;101960.25;4967681;28;20034;-68
2023/08/22 05:13:18;;;;;;;4.93;2.45;;;;;;;24.32;53.76;101954.09;4967779;28;20334;-67
2023/08/22 05:15:43;;;;;;;6.03;2.70;;;;;;;24.31;53.71;101950.59;4967738;28;20110;-68
2023/08/22 05:18:08;;;;;;;4.45;2.40;;;;;;;24.31;53.39;101961.25;4967331;28;20057;-68
2023/08/22 05:20:34;;;;;;;6.43;2.55;;;;;;;24.30;53.32;101954.22;4967122;28;20031;-69
2023/08/22 05:22:59;;;;;;;5.05;2.67;;;;;;;24.31;53.27;101961.25;4968058;28;20038;-67
2023/08/22 05:25:24;;;;;;;5.30;2.42;;;;;;;24.30;53.47;101948.91;4967937;28;20038;-68
2023/08/22 05:27:50;;;;;;;5.20;2.70;;;;;;;24.30;53.29;101948.06;4967152;28;20054;-68
2023/08/22 05:30:15;;;;;;;3.83;2.40;;;;;;;24.29;53.29;101941.88;4967467;28;20046;-68
2023/08/22 05:32:41;;;;;;;4.15;2.50;;;;;;;24.30;53.28;101950.75;4968068;28;20037;-68
2023/08/22 05:35:07;;;;;;;5.03;2.70;;;;;;;24.28;53.38;101945.56;4967277;28;20043;-68
2023/08/22 05:37:32;;;;;;;4.03;2.33;;;;;;;24.29;53.83;101946.38;4967574;28;20031;-67
2023/08/22 05:39:57;;;;;;;5.10;2.60;;;;;;;24.30;53.58;101942.75;4966877;28;20037;-67
2023/08/22 05:42:23;;;;;;;4.90;2.58;;;;;;;24.29;53.37;101938.38;4967725;28;20069;-66
2023/08/22 05:44:48;;;;;;;4.45;2.58;;;;;;;24.30;53.51;101940.09;4967505;28;20042;-66
2023/08/22 05:47:14;;;;;;;5.75;2.65;;;;;;;24.28;53.57;101940.22;4966457;28;20031;-66
2023/08/22 05:49:42;;;;;;;6.32;2.65;;;;;;;24.29;53.92;101935.72;4986331;28;20035;-66
2023/08/22 05:52:08;;;;;;;4.30;2.40;;;;;;;24.28;53.51;101945.56;4970302;28;20043;-66
2023/08/22 05:54:33;;;;;;;4.50;2.53;;;;;;;24.29;53.51;101946.38;4971124;28;20034;-66
2023/08/22 05:56:58;;;;;;;6.32;2.60;;;;;;;24.29;53.45;101957.03;4970928;28;20074;-67
2023/08/22 05:59:24;;;;;;;5.40;2.50;;;;;;;24.29;53.93;101957.88;4971385;28;20428;-67
2023/08/22 06:01:49;;;;;;;4.32;2.45;;;;;;;24.29;53.85;101959.69;4971256;28;20046;-65
2023/08/22 06:04:17;;;;;;;5.13;2.50;;;;;;;24.28;54.05;101956.19;4970989;28;20042;-67
2023/08/22 06:06:43;;;;;;;3.72;2.05;;;;;;;24.29;53.92;101962.38;4970782;28;20117;-67
2023/08/22 06:09:08;;;;;;;3.92;2.00;;;;;;;24.29;54.22;101962.38;4970593;28;20452;-68
2023/08/22 06:11:33;;;;;;;4.13;2.22;;;;;;;24.30;53.60;101966.72;4971496;28;20039;-67
2023/08/22 06:13:59;;;;;;;6.18;3.30;;;;;;;24.32;53.57;101968.25;4970096;28;20038;-66
2023/08/22 06:16:24;;;;;;;5.00;2.83;;;;;;;24.34;53.94;101962.78;4969146;28;20027;-67
2023/08/22 06:18:49;;;;;;;6.07;2.40;;;;;;;24.35;54.09;101965.31;4968944;28;20085;-67
2023/08/22 06:21:15;;;;;;;4.18;2.42;;;;;;;24.34;54.07;101962.78;4969315;28;20296;-67
2023/08/22 06:23:40;;;;;;;4.53;2.45;;;;;;;24.34;54.17;101966.31;4969486;28;20058;-66
2023/08/22 06:26:05;;;;;;;5.82;2.50;;;;;;;24.32;54.30;101970.06;4969531;28;20111;-66
2023/08/22 06:28:31;;;;;;;6.63;3.00;;;;;;;24.34;54.43;101968.09;4970327;28;20133;-67
2023/08/22 06:31:03;;;;;;;6.82;2.33;;;;;;;24.31;54.67;101976.38;4969657;28;20066;-66
2023/08/22 06:33:29;;;;;;;5.22;2.55;;;;;;;24.32;54.64;101964.75;4970297;28;20031;-66
2023/08/22 06:35:54;;;;;;;4.95;2.20;;;;;;;24.32;54.43;101956.75;4970701;28;20030;-66
2023/08/22 06:38:20;;;;;;;5.47;2.55;;;;;;;24.31;54.50;101971.91;4970829;28;20035;-66
2023/08/22 06:40:45;;;;;;;5.75;2.53;;;;;;;24.32;54.49;101968.25;4970618;28;20031;-66
2023/08/22 06:43:10;;;;;;;4.18;2.40;;;;;;;24.32;54.73;101973.56;4970202;28;20443;-66
2023/08/22 06:45:36;;;;;;;3.65;2.17;;;;;;;24.32;54.62;101975.41;4969507;28;20034;-66
2023/08/22 06:48:01;;;;;;;7.28;2.72;;;;;;;24.32;54.79;101981.56;4970240;28;20522;-66
2023/08/22 06:50:27;;;;;;;5.32;2.08;;;;;;;24.32;55.20;101983.41;4970941;28;20070;-67
2023/08/22 06:52:52;;;;;;;6.03;2.35;;;;;;;24.31;55.20;101984.38;4969975;28;20039;-67
2023/08/22 06:55:17;;;;;;;4.68;2.33;;;;;;;24.33;55.12;101998.41;4970135;28;20027;-67
2023/08/22 06:57:43;;;;;;;5.10;2.10;;;;;;;24.32;55.28;101994.88;4970089;28;20042;-67
2023/08/22 07:00:15;;;;;;;4.23;2.03;;;;;;;24.33;55.47;102001.06;4968083;28;20031;-66
2023/08/22 07:02:41;;;;;;;5.18;2.10;;;;;;;24.41;55.19;102009.22;4972467;28;20761;-65
2023/08/22 07:05:08;;;;;;;4.45;2.28;;;;;;;24.48;55.05;102005.00;4969883;28;20030;-66
2023/08/22 07:07:34;;;;;;;3.45;2.00;;;;;;;24.53;55.04;101999.25;4969407;28;20161;-66
2023/08/22 07:10:00;;;;;;;4.30;2.05;;;;;;;24.55;54.79;102007.97;4967683;28;20034;-66
2023/08/22 07:12:25;;;;;;;4.82;1.90;;;;;;;24.50;54.97;102011.06;4968450;28;20039;-65
2023/08/22 07:14:51;;;;;;;4.10;2.05;;;;;;;24.48;54.98;102006.84;4970092;28;20043;-65
2023/08/22 07:17:16;;;;;;;6.18;2.75;;;;;;;24.48;55.47;102009.50;4970339;28;20428;-65
2023/08/22 07:19:41;;;;;;;7.47;2.33;;;;;;;24.46;55.45;102006.97;4971568;28;20486;-67
2023/08/22 07:22:07;;;;;;;4.28;1.77;;;;;;;24.43;55.29;102008.09;4972185;28;20101;-66
2023/08/22 07:24:32;;;;;;;5.30;2.03;;;;;;;24.45;55.44;101999.97;4969571;28;20026;-67
2023/08/22 07:26:57;;;;;;;4.72;1.95;;;;;;;24.47;55.23;102008.66;4970036;28;20484;-66
2023/08/22 07:29:22;;;;;;;3.90;1.63;;;;;;;24.45;54.68;102006.13;4969174;28;20031;-65
2023/08/22 07:31:48;;;;;;;5.37;2.00;;;;;;;24.45;55.42;102014.13;4966228;28;20039;-66
2023/08/22 07:34:13;;;;;;;5.53;2.00;;;;;;;24.45;55.65;102018.63;4968840;28;20268;-66
2023/08/22 07:36:38;;;;;;;3.80;1.70;;;;;;;24.49;55.27;102008.53;4968809;28;20043;-66
2023/08/22 07:39:04;;;;;;;4.13;1.70;;;;;;;24.49;55.27;102000.53;4967290;28;20034;-66
2023/08/22 07:41:29;;;;;;;4.55;1.63;;;;;;;24.49;55.41;102001.38;4966323;28;20035;-65
2023/08/22 07:43:54;;;;;;;4.27;1.53;;;;;;;24.51;55.03;102006.56;4969310;28;20029;-66
2023/08/22 07:46:20;;;;;;;3.63;1.60;;;;;;;24.49;54.89;102012.03;4969028;28;20319;-65
2023/08/22 07:48:45;;;;;;;3.55;1.63;;;;;;;24.50;54.99;102008.38;4970354;28;20026;-65
2023/08/22 07:51:11;;;;;;;4.15;1.70;;;;;;;24.51;55.25;102003.88;4968942;28;20026;-66
2023/08/22 07:53:36;;;;;;;6.43;1.85;;;;;;;24.52;54.79;102008.25;4968472;28;20081;-64
2023/08/22 07:56:02;;;;;;;7.90;1.95;;;;;;;24.58;55.02;102007.72;4966633;28;20031;-66
2023/08/22 07:58:27;;;;;;;6.63;2.00;;;;;;;24.63;54.72;102010.81;4968891;28;20037;-65
2023/08/22 08:00:52;;;;;;;5.30;2.67;;;;;;;24.65;54.72;102000.84;4967035;28;20903;-63
2023/08/22 08:03:17;;;;;;;4.57;1.88;;;;;;;24.69;54.67;101998.72;4968224;28;20031;-65
2023/08/22 08:05:43;;;;;;;6.50;2.00;;;;;;;24.70;54.23;102011.09;4968634;28;20035;-65
2023/08/22 08:08:08;;;;;;;5.90;2.33;;;;;;;24.72;54.30;102009.13;4968299;28;20265;-66
2023/08/22 08:10:35;;;;;;;3.80;1.70;;;;;;;24.72;54.01;102011.78;4967239;28;20149;-67
2023/08/22 08:13:01;;;;;;;5.65;2.08;;;;;;;24.70;53.97;102014.59;4968050;28;20038;-63
2023/08/22 08:15:26;;;;;;;6.35;1.83;;;;;;;24.69;54.16;102020.91;4967561;28;20041;-64
2023/08/22 08:17:52;;;;;;;5.75;2.10;;;;;;;24.67;54.16;102017.53;4967899;28;20031;-65
2023/08/22 08:20:17;;;;;;;5.43;2.03;;;;;;;24.69;53.98;102028.03;4968166;28;20540;-65
2023/08/22 08:22:43;;;;;;;7.32;2.30;;;;;;;24.68;54.11;102026.38;4968720;28;20034;-64
2023/08/22 08:25:08;;;;;;;5.25;2.10;;;;;;;24.65;53.79;102024.00;4967557;28;20034;-65
2023/08/22 08:27:33;;;;;;;6.35;2.28;;;;;;;24.67;53.59;102024.69;4966295;28;20442;-65
2023/08/22 08:29:59;;;;;;;5.07;2.03;;;;;;;24.67;53.45;102025.53;4966379;28;20073;-65
2023/08/22 08:32:25;;;;;;;5.10;2.10;;;;;;;24.67;53.95;102027.34;4966646;28;20058;-65
2023/08/22 08:34:50;;;;;;;4.90;2.20;;;;;;;24.69;53.97;102031.56;4966814;28;20479;-66
2023/08/22 08:37:15;;;;;;;4.00;1.95;;;;;;;24.69;53.97;102034.25;4966861;28;20030;-67
2023/08/22 08:39:41;;;;;;;6.13;2.33;;;;;;;24.68;54.16;102023.72;4966747;28;20467;-66
2023/08/22 08:42:14;;;;;;;5.20;2.10;;;;;;;24.70;53.92;102032.41;4981430;28;20581;-67
2023/08/22 08:44:40;;;;;;;7.95;2.20;;;;;;;24.73;53.61;102024.97;4967786;28;20220;-68
2023/08/22 08:47:07;;;;;;;6.50;2.53;;;;;;;24.74;53.56;102024.00;4967434;28;20037;-67
2023/08/22 08:49:34;;;;;;;7.32;2.30;;;;;;;24.74;53.51;102015.16;4967533;28;20106;-65
2023/08/22 08:52:05;;;;;;;7.03;2.58;;;;;;;24.74;52.84;102015.16;4967289;28;20119;-67
2023/08/22 08:54:31;;;;;;;6.35;2.80;;;;;;;24.75;53.27;102014.16;4967898;28;20031;-67
2023/08/22 08:56:57;;;;;;;8.15;2.63;;;;;;;24.75;52.83;102017.69;4966294;28;20113;-68
2023/08/22 08:59:23;;;;;;;5.55;2.25;;;;;;;24.74;52.70;102016.00;4965213;28;20118;-67
2023/08/22 09:01:50;;;;;;;7.70;2.30;;;;;;;24.71;53.20;102016.28;4964819;28;20101;-66
2023/08/22 09:04:15;;;;;;;5.95;2.60;;;;;;;24.72;53.05;102027.78;4964975;28;20089;-66
2023/08/22 09:06:41;;;;;;;6.90;2.40;;;;;;;24.70;53.38;102024.41;4965429;28;20039;-66
2023/08/22 09:09:08;;;;;;;7.72;2.83;;;;;;;24.68;53.07;102027.22;4963403;28;20046;-66
2023/08/22 09:11:35;;;;;;;7.15;2.33;;;;;;;24.69;53.47;102022.72;4965162;28;20066;-66
2023/08/22 09:14:00;;;;;;;7.53;2.40;;;;;;;24.68;53.27;102016.56;4965980;28;20089;-66
2023/08/22 09:16:27;;;;;;;7.72;2.50;;;;;;;24.69;53.12;102023.59;4967291;28;20046;-64
2023/08/22 09:18:59;;;;;;;5.57;2.72;;;;;;;24.68;53.53;102021.06;4966868;28;20046;-65
2023/08/22 09:21:24;;;;;;;5.47;2.50;;;;;;;24.69;53.00;102022.72;4963025;28;20077;-65
2023/08/22 09:23:49;;;;;;;7.15;2.92;;;;;;;24.72;53.38;102022.44;4968352;28;20157;-67
2023/08/22 09:26:20;;;;;;;7.68;3.20;;;;;;;24.70;53.44;102029.75;4970211;28;20039;-69
2023/08/22 09:28:46;;;;;;;8.05;3.67;;;;;;;24.74;53.28;102026.66;4968853;28;20432;-68
2023/08/22 09:31:21;;;;;;;9.90;3.95;;;;;;;24.73;53.56;102030.28;4967531;28;20046;-68
2023/08/22 09:33:48;;;;;;;8.95;3.63;;;;;;;24.71;53.08;102029.59;4968794;28;20034;-68
2023/08/22 09:36:21;;;;;;;10.80;4.10;;;;;;;24.69;53.00;102020.91;4970716;28;20034;-67
2023/08/22 09:38:55;;;;;;;10.32;4.00;;;;;;;24.68;53.61;102018.38;4973222;28;20424;-67
2023/08/22 09:41:24;;;;;;;9.88;4.38;;;;;;;24.67;53.48;102017.53;4971402;28;20039;-68
2023/08/22 09:44:00;;;;;;;8.25;3.78;;;;;;;24.66;54.09;102023.00;4972163;28;20030;-69
2023/08/22 09:46:26;;;;;;;9.80;3.55;;;;;;;24.65;54.44;102040.81;4971212;28;20034;-68
2023/08/22 09:48:55;;;;;;;10.43;3.83;;;;;;;24.62;54.04;102033.09;4969028;28;20033;-67
2023/08/22 09:51:21;;;;;;;10.52;3.88;;;;;;;24.61;54.37;102034.94;4965649;28;20057;-71
2023/08/22 09:53:51;;;;;;;10.00;3.60;;;;;;;24.61;54.29;102031.44;4968819;28;20039;-68
2023/08/22 09:56:19;;;;;;;8.32;3.38;;;;;;;24.63;54.34;102035.63;4969934;28;20038;-68
2023/08/22 09:58:44;;;;;;;9.38;2.70;;;;;;;24.66;54.26;102039.84;4968941;28;20093;-70
2023/08/22 10:01:16;;;;;;;7.32;2.63;;;;;;;24.65;54.87;102043.47;4970406;28;20043;-68
2023/08/22 10:03:49;;;;;;;8.73;2.67;;;;;;;24.67;54.96;102040.69;4970126;28;20034;-68
2023/08/22 10:06:15;;;;;;;6.07;2.38;;;;;;;24.67;54.31;102032.69;4969981;28;20647;-68
2023/08/22 10:08:42;;;;;;;6.63;2.40;;;;;;;24.65;54.72;102040.00;4970633;28;20038;-68
2023/08/22 10:11:14;;;;;;;5.30;2.40;;;;;;;24.68;54.64;102031.72;4968434;28;20031;-71
2023/08/22 10:13:41;;;;;;;7.47;3.08;;;;;;;24.69;54.93;102031.56;4971069;28;20594;-69
2023/08/22 10:16:07;;;;;;;7.53;2.75;;;;;;;24.71;54.47;102034.94;4969557;28;20035;-68
2023/08/22 10:18:32;;;;;;;7.13;2.83;;;;;;;24.72;54.67;102028.63;4970241;28;20027;-69
2023/08/22 10:20:58;;;;;;;6.13;2.25;;;;;;;24.74;54.94;102024.00;4966955;28;20435;-67
2023/08/22 10:23:52;;;;;;;6.95;2.25;;;;;;;24.73;54.99;102018.81;4969156;28;20043;-69
2023/08/22 10:26:19;;;;;;;5.80;2.10;;;;;;;24.76;54.79;102019.34;4968194;28;20051;-67
2023/08/22 10:28:44;;;;;;;5.72;2.20;;;;;;;24.73;54.59;102024.97;4970176;28;20086;-68
2023/08/22 10:31:11;;;;;;;6.68;2.55;;;;;;;24.74;54.77;102028.50;4938503;28;20069;-67
2023/08/22 10:34:00;;;;;;;4.45;2.15;;;;;;;24.71;54.80;102026.94;307521;28;10022626;-67
2023/08/22 10:36:25;;;;;;;8.43;2.15;;;;;;;24.74;54.70;102025.81;4471422;28;10000934;-66
2023/08/22 10:38:56;;;;;;;6.70;2.30;;;;;;;24.76;54.59;102029.19;4988990;28;20549;-66
2023/08/22 10:42:00;;;;;;;4.85;1.92;;;;;;;24.78;54.51;102017.41;4986503;28;20164;-67
2023/08/22 10:44:30;;;;;;;8.30;2.30;;;;;;;24.85;54.07;102015.03;4987384;28;20561;-67
2023/08/22 10:47:07;;;;;;;6.00;2.15;;;;;;;24.85;54.00;102020.34;4986474;28;20030;-68
2023/08/22 10:49:38;;;;;;;7.57;2.35;;;;;;;24.88;54.33;102022.72;4985651;28;20030;-67
2023/08/22 10:52:05;;;;;;;4.53;1.83;;;;;;;24.87;54.06;102018.38;4985367;28;20064;-67
2023/08/22 10:54:31;;;;;;;5.45;1.88;;;;;;;24.89;53.97;102021.72;4985663;28;20066;-69
2023/08/22 10:57:15;;;;;;;4.65;1.98;;;;;;;24.88;54.15;102011.22;4987797;28;20081;-70
2023/08/22 10:59:59;;;;;;;6.10;2.13;;;;;;;24.89;54.21;102015.56;4987330;28;20038;-66
2023/08/22 11:02:28;;;;;;;4.18;1.60;;;;;;;24.87;54.33;102013.03;4988651;28;20034;-66
2023/08/22 11:04:56;;;;;;;4.35;1.80;;;;;;;24.89;54.26;102018.22;4988480;28;20130;-68
2023/08/22 11:07:22;;;;;;;5.30;2.10;;;;;;;24.90;54.36;102009.25;4988328;28;20050;-68
2023/08/22 11:09:48;;;;;;;5.60;1.83;;;;;;;24.90;54.22;102012.75;4988146;28;20022;-68
2023/08/22 11:12:18;;;;;;;4.88;1.90;;;;;;;24.89;54.16;102013.72;4987497;28;20030;-65
2023/08/22 11:14:48;;;;;;;3.38;1.52;;;;;;;24.93;53.64;102017.81;4987377;28;20038;-67
2023/08/22 11:17:18;;;;;;;5.00;1.80;;;;;;;24.92;53.92;102012.63;4978617;28;20030;-69
2023/08/22 11:19:44;;;;;;;3.65;1.83;;;;;;;24.97;53.80;102027.19;4977249;28;20073;-69
2023/08/22 11:22:10;;;;;;;4.80;1.73;;;;;;;24.94;53.86;102022.19;4978585;28;20093;-68